createdAt,value
2018-11-10T00:00:58.313Z,44.33
2018-11-10T00:03:28.457Z,43.87
2018-11-10T00:05:59.038Z,39.07
2018-11-10T00:08:29.751Z,36.10
2018-11-10T00:10:59.938Z,35.07
2018-11-10T00:13:30.193Z,31.20
2018-11-10T00:16:00.847Z,33.20
2018-11-10T00:18:31.048Z,33.13
2018-11-10T00:21:01.328Z,34.40
2018-11-10T00:23:31.743Z,31.50
2018-11-10T00:26:02.118Z,31.90
2018-11-10T00:28:32.228Z,31.63
2018-11-10T00:31:02.368Z,33.57
2018-11-10T00:33:32.459Z,29.90
2018-11-10T00:36:02.748Z,31.97
2018-11-10T00:38:33.027Z,32.03
2018-11-10T00:41:03.098Z,35.27
2018-11-10T00:43:33.123Z,34.33
2018-11-10T00:46:03.243Z,34.03
2018-11-10T00:48:33.450Z,34.63
2018-11-10T00:51:04.203Z,33.77
2018-11-10T00:53:34.867Z,33.60
2018-11-10T00:56:04.917Z,34.03
2018-11-10T00:58:35.185Z,33.70
2018-11-10T01:01:05.562Z,31.23
2018-11-10T01:03:36.127Z,31.23
2018-11-10T01:06:06.848Z,31.40
2018-11-10T01:08:36.911Z,35.37
2018-11-10T01:11:07.137Z,36.47
2018-11-10T01:13:37.187Z,38.13
2018-11-10T01:16:07.603Z,45.53
2018-11-10T01:18:37.687Z,47.43
2018-11-10T01:21:08.210Z,54.37
2018-11-10T01:23:38.500Z,54.30
2018-11-10T01:26:08.842Z,58.80
2018-11-10T01:28:39.032Z,64.20
2018-11-10T01:31:09.358Z,65.83
2018-11-10T01:33:39.653Z,68.87
2018-11-10T01:36:09.753Z,72.50
2018-11-10T01:38:39.783Z,74.00
2018-11-10T01:41:09.992Z,73.27
2018-11-10T01:43:40.671Z,66.40
2018-11-10T01:46:11.068Z,62.27
2018-11-10T01:48:41.398Z,62.90
2018-11-10T01:51:11.613Z,63.47
2018-11-10T01:53:41.668Z,63.90
2018-11-10T01:56:11.998Z,69.77
2018-11-10T01:58:42.288Z,77.93
2018-11-10T02:01:12.266Z,77.83
2018-11-10T02:03:42.473Z,80.33
2018-11-10T02:06:12.867Z,81.53
2018-11-10T02:08:42.967Z,94.47
2018-11-10T02:11:13.204Z,90.23
2018-11-10T02:13:43.528Z,93.63
2018-11-10T02:16:13.993Z,88.77
2018-11-10T02:18:44.472Z,86.37
2018-11-10T02:21:14.764Z,85.17
2018-11-10T02:23:45.088Z,87.73
2018-11-10T02:26:15.588Z,108.63
2018-11-10T02:28:46.023Z,101.30
2018-11-10T02:31:16.132Z,102.27
2018-11-10T02:33:46.222Z,100.43
2018-11-10T02:36:16.463Z,103.30
2018-11-10T02:38:46.593Z,112.33
2018-11-10T02:41:16.693Z,114.73
2018-11-10T02:43:46.844Z,115.13
2018-11-10T02:46:16.952Z,108.70
2018-11-10T02:48:47.068Z,103.67
2018-11-10T02:51:17.246Z,99.27
2018-11-10T02:53:47.477Z,93.00
2018-11-10T02:56:17.642Z,96.63
2018-11-10T02:58:47.648Z,89.73
2018-11-10T03:01:17.908Z,100.00
2018-11-10T03:03:48.202Z,94.57
2018-11-10T03:06:18.313Z,98.73
2018-11-10T03:08:48.468Z,98.80
2018-11-10T03:11:18.922Z,99.67
2018-11-10T03:13:49.012Z,103.47
2018-11-10T03:16:19.231Z,104.57
2018-11-10T03:18:49.593Z,101.53
2018-11-10T03:21:19.864Z,99.23
2018-11-10T03:23:50.158Z,98.63
2018-11-10T03:26:20.297Z,96.13
2018-11-10T03:28:50.507Z,95.40
2018-11-10T03:31:20.808Z,92.87
2018-11-10T03:33:50.948Z,92.70
2018-11-10T03:36:20.987Z,89.90
2018-11-10T03:38:51.243Z,96.03
2018-11-10T03:41:21.465Z,87.10
2018-11-10T03:43:51.608Z,90.97
2018-11-10T03:46:21.862Z,90.37
2018-11-10T03:48:52.058Z,89.13
2018-11-10T03:51:22.373Z,88.17
2018-11-10T03:53:52.443Z,83.47
2018-11-10T03:56:22.805Z,89.30
2018-11-10T03:58:52.783Z,78.43
2018-11-10T04:01:23.085Z,74.03
2018-11-10T04:03:53.038Z,71.33
2018-11-10T04:06:23.352Z,67.17
2018-11-10T04:08:53.573Z,65.17
2018-11-10T04:11:23.688Z,60.93
2018-11-10T04:13:53.867Z,59.93
2018-11-10T04:16:24.051Z,58.10
2018-11-10T04:18:54.258Z,56.30
2018-11-10T04:21:24.614Z,55.53
2018-11-10T04:23:54.667Z,54.87
2018-11-10T04:26:24.787Z,55.60
2018-11-10T04:28:54.539Z,55.23
2018-11-10T04:31:24.488Z,53.30
2018-11-10T04:33:54.317Z,49.70
2018-11-10T04:36:24.151Z,47.60
2018-11-10T04:38:54.053Z,48.17
2018-11-10T04:41:24.043Z,44.47
2018-11-10T04:43:53.908Z,45.50
2018-11-10T04:46:23.720Z,48.60
2018-11-10T04:48:53.498Z,48.57
2018-11-10T04:51:23.388Z,48.97
2018-11-10T04:53:53.167Z,48.97
2018-11-10T04:56:23.017Z,50.20
2018-11-10T04:58:52.808Z,50.27
2018-11-10T05:01:22.761Z,51.67
2018-11-10T05:03:52.588Z,52.93
2018-11-10T05:06:22.363Z,54.53
2018-11-10T05:08:52.133Z,55.90
2018-11-10T05:11:21.867Z,58.70
2018-11-10T05:13:51.742Z,61.57
2018-11-10T05:16:21.748Z,65.13
2018-11-10T05:18:51.803Z,64.80
2018-11-10T05:21:22.207Z,63.10
2018-11-10T05:23:51.988Z,64.33
2018-11-10T05:26:21.848Z,63.90
2018-11-10T05:28:51.852Z,64.23
2018-11-10T05:31:21.708Z,64.87
2018-11-10T05:33:51.473Z,66.30
2018-11-10T05:36:21.318Z,72.37
2018-11-10T05:38:51.109Z,76.10
2018-11-10T05:41:21.083Z,74.83
2018-11-10T05:43:51.058Z,75.50
2018-11-10T05:46:20.913Z,85.40
2018-11-10T05:48:50.788Z,87.53
2018-11-10T05:51:20.797Z,84.50
2018-11-10T05:53:50.678Z,80.80
2018-11-10T05:56:20.517Z,83.53
2018-11-10T05:58:50.423Z,83.80
2018-11-10T06:01:20.283Z,82.90
2018-11-10T06:03:50.168Z,82.07
2018-11-10T06:06:20.023Z,82.03
2018-11-10T06:08:50.018Z,78.10
2018-11-10T06:11:19.851Z,79.70
2018-11-10T06:13:50.213Z,75.03
2018-11-10T06:16:19.973Z,79.57
2018-11-10T06:18:49.907Z,81.53
2018-11-10T06:21:19.697Z,83.03
2018-11-10T06:23:49.554Z,81.73
2018-11-10T06:26:19.398Z,80.60
2018-11-10T06:28:49.302Z,85.47
2018-11-10T06:31:19.268Z,82.87
2018-11-10T06:33:49.062Z,86.67
2018-11-10T06:36:18.848Z,82.23
2018-11-10T06:38:48.698Z,81.10
2018-11-10T06:41:18.947Z,85.77
2018-11-10T06:43:49.211Z,80.03
2018-11-10T06:46:19.273Z,84.13
2018-11-10T06:48:49.188Z,85.77
2018-11-10T06:51:19.377Z,83.83
2018-11-10T06:53:49.424Z,87.60
2018-11-10T06:56:39.577Z,86.73
2018-11-10T06:59:10.068Z,90.17
2018-11-10T07:01:39.908Z,87.10
2018-11-10T07:04:09.983Z,89.90
2018-11-10T07:06:40.263Z,92.03
2018-11-10T07:09:11.835Z,90.27
2018-11-10T07:11:42.583Z,90.67
2018-11-10T07:14:12.583Z,86.63
2018-11-10T07:16:42.619Z,88.13
2018-11-10T07:19:12.663Z,89.13
2018-11-10T07:21:42.770Z,87.13
2018-11-10T07:24:12.869Z,87.20
2018-11-10T07:26:42.888Z,86.10
2018-11-10T07:29:12.883Z,89.00
2018-11-10T07:31:43.323Z,87.13
2018-11-10T07:34:13.650Z,88.70
2018-11-10T07:36:43.643Z,91.50
2018-11-10T07:39:14.098Z,92.03
2018-11-10T07:41:44.873Z,86.10
2018-11-10T07:44:15.381Z,84.57
2018-11-10T07:46:47.288Z,87.87
2018-11-10T07:49:17.705Z,88.37
2018-11-10T07:51:47.848Z,89.07
2018-11-10T07:54:17.730Z,84.33
2018-11-10T07:56:47.545Z,84.57
2018-11-10T07:59:17.703Z,84.00
2018-11-10T08:01:47.928Z,78.20
2018-11-10T08:04:18.528Z,77.50
2018-11-10T08:06:48.723Z,80.80
2018-11-10T08:09:18.958Z,79.40
2018-11-10T08:11:50.026Z,80.00
2018-11-10T08:14:20.313Z,80.33
2018-11-10T08:16:50.488Z,74.80
2018-11-10T08:19:20.539Z,77.60
2018-11-10T08:21:50.558Z,71.60
2018-11-10T08:24:20.908Z,71.43
2018-11-10T08:26:51.495Z,72.97
2018-11-10T08:29:22.018Z,72.10
2018-11-10T08:31:52.769Z,70.77
2018-11-10T08:34:22.718Z,68.63
2018-11-10T08:36:52.553Z,69.20
2018-11-10T08:39:23.113Z,66.60
2018-11-10T08:41:53.163Z,66.90
2018-11-10T08:44:23.376Z,65.77
2018-11-10T08:46:53.993Z,65.77
2018-11-10T08:49:23.938Z,65.97
2018-11-10T08:51:53.753Z,61.13
2018-11-10T08:54:23.558Z,63.07
2018-11-10T08:56:53.447Z,59.90
2018-11-10T08:59:23.323Z,58.93
2018-11-10T09:01:53.402Z,57.63
2018-11-10T09:04:23.248Z,60.07
2018-11-10T09:06:53.098Z,60.83
2018-11-10T09:09:23.013Z,59.97
2018-11-10T09:11:52.883Z,56.53
2018-11-10T09:14:22.888Z,59.43
2018-11-10T09:16:53.088Z,56.57
2018-11-10T09:19:23.293Z,60.97
2018-11-10T09:21:53.598Z,63.77
2018-11-10T09:24:23.873Z,65.63
2018-11-10T09:26:54.168Z,64.97
2018-11-10T09:29:24.278Z,64.43
2018-11-10T09:31:54.533Z,60.23
2018-11-10T09:34:24.697Z,55.27
2018-11-10T09:36:55.073Z,54.90
2018-11-10T09:39:25.133Z,53.23
2018-11-10T09:41:55.313Z,50.53
2018-11-10T09:44:25.497Z,47.30
2018-11-10T09:46:55.768Z,45.20
2018-11-10T09:49:25.834Z,44.63
2018-11-10T09:51:55.998Z,43.67
2018-11-10T09:54:25.929Z,45.77
2018-11-10T09:56:56.018Z,45.00
2018-11-10T09:59:26.013Z,46.90
2018-11-10T10:01:56.198Z,45.47
2018-11-10T10:04:26.018Z,48.87
2018-11-10T10:06:56.171Z,48.87
2018-11-10T10:09:26.193Z,47.77
2018-11-10T10:11:56.263Z,55.50
2018-11-10T10:14:26.438Z,51.53
2018-11-10T10:16:56.698Z,50.60
2018-11-10T10:19:26.985Z,50.80
2018-11-10T10:21:57.622Z,50.87
2018-11-10T10:24:27.923Z,51.47
2018-11-10T10:26:58.172Z,49.30
2018-11-10T10:29:28.323Z,47.53
2018-11-10T10:31:58.957Z,41.80
2018-11-10T10:34:29.961Z,42.97
2018-11-10T10:37:00.574Z,44.93
2018-11-10T10:39:30.743Z,42.97
2018-11-10T10:42:00.948Z,46.27
2018-11-10T10:44:34.243Z,42.33
2018-11-10T10:47:04.758Z,44.37
2018-11-10T10:49:35.334Z,44.67
2018-11-10T10:52:05.608Z,43.77
2018-11-10T10:54:35.668Z,44.33
2018-11-10T10:57:06.141Z,43.87
2018-11-10T10:59:43.243Z,45.70
2018-11-10T11:02:18.550Z,45.30
2018-11-10T11:04:55.653Z,48.30
2018-11-10T11:07:26.853Z,47.30
2018-11-10T11:09:57.229Z,44.00
2018-11-10T11:12:28.254Z,44.93
2018-11-10T11:14:58.520Z,45.83
2018-11-10T11:17:28.842Z,46.43
2018-11-10T11:19:58.973Z,46.17
2018-11-10T11:22:29.193Z,45.87
2018-11-10T11:25:00.278Z,42.57
2018-11-10T11:27:30.608Z,49.70
2018-11-10T11:30:00.793Z,44.80
2018-11-10T11:32:31.083Z,43.83
2018-11-10T11:35:01.220Z,39.83
2018-11-10T11:37:31.468Z,46.30
2018-11-10T11:40:01.534Z,43.77
2018-11-10T11:42:31.904Z,51.53
2018-11-10T11:45:02.773Z,45.67
2018-11-10T11:47:33.078Z,49.08
2018-11-10T11:50:04.233Z,47.13
2018-11-10T11:55:55.633Z,42.07
2018-11-10T11:58:25.777Z,46.00
2018-11-10T12:00:55.808Z,42.47
2018-11-10T12:03:26.068Z,42.87
2018-11-10T12:05:56.373Z,45.50
2018-11-10T12:08:26.823Z,46.33
2018-11-10T12:10:57.074Z,44.07
2018-11-10T12:13:27.053Z,41.70
2018-11-10T12:15:57.473Z,42.97
2018-11-10T12:18:27.783Z,43.80
2018-11-10T12:20:57.892Z,41.93
2018-11-10T12:23:28.166Z,43.83
2018-11-10T12:25:58.413Z,43.03
2018-11-10T12:28:28.818Z,43.77
2018-11-10T12:30:59.154Z,43.07
2018-11-10T12:33:29.403Z,45.23
2018-11-10T12:36:00.948Z,41.83
2018-11-10T12:38:31.239Z,43.43
2018-11-10T12:41:01.650Z,42.87
2018-11-10T12:43:31.618Z,43.03
2018-11-10T12:46:01.839Z,41.93
2018-11-10T12:48:32.094Z,41.73
2018-11-10T12:51:02.263Z,42.93
2018-11-10T12:53:32.423Z,42.30
2018-11-10T12:56:02.598Z,44.07
2018-11-10T12:58:32.678Z,43.73
2018-11-10T13:01:02.772Z,43.73
2018-11-10T13:03:33.032Z,45.07
2018-11-10T13:06:03.673Z,44.10
2018-11-10T13:08:33.878Z,44.67
2018-11-10T13:11:04.294Z,42.77
2018-11-10T13:13:34.473Z,41.57
2018-11-10T13:16:04.823Z,45.77
2018-11-10T13:18:35.198Z,43.90
2018-11-10T13:21:05.669Z,45.97
2018-11-10T13:23:35.988Z,42.53
2018-11-10T13:26:06.363Z,44.53
2018-11-10T13:28:37.013Z,43.80
2018-11-10T13:31:07.502Z,47.90
2018-11-10T13:33:37.968Z,48.53
2018-11-10T13:36:08.260Z,56.70
2018-11-10T13:38:38.688Z,47.20
2018-11-10T13:41:08.983Z,47.70
2018-11-10T13:43:39.142Z,44.93
2018-11-10T13:46:09.248Z,44.80
2018-11-10T13:48:39.868Z,49.27
2018-11-10T13:51:10.409Z,44.37
2018-11-10T13:53:40.483Z,42.03
2018-11-10T13:56:10.878Z,45.10
2018-11-10T13:58:41.648Z,44.33
2018-11-10T14:01:11.763Z,44.43
2018-11-10T14:03:42.104Z,45.40
2018-11-10T14:06:12.282Z,45.23
2018-11-10T14:08:43.008Z,44.13
2018-11-10T14:11:13.353Z,43.23
2018-11-10T14:13:43.468Z,42.90
2018-11-10T14:16:13.981Z,42.50
2018-11-10T14:18:44.918Z,44.80
2018-11-10T14:21:15.628Z,40.27
2018-11-10T14:23:46.563Z,41.90
2018-11-10T14:26:16.866Z,41.07
2018-11-10T14:28:47.101Z,41.07
2018-11-10T14:31:17.578Z,41.53
2018-11-10T14:33:47.915Z,39.53
2018-11-10T14:36:18.518Z,32.57
2018-11-10T14:38:48.888Z,35.40
2018-11-10T14:41:19.183Z,38.50
2018-11-10T14:43:49.632Z,32.83
2018-11-10T14:46:20.363Z,32.63
2018-11-10T14:48:50.588Z,38.87
2018-11-10T14:51:21.083Z,36.90
2018-11-10T14:53:51.393Z,38.90
2018-11-10T14:56:21.698Z,38.77
2018-11-10T14:58:52.338Z,40.10
2018-11-10T15:01:22.938Z,39.00
2018-11-10T15:03:53.612Z,37.40
2018-11-10T15:06:24.169Z,39.77
2018-11-10T15:08:54.904Z,37.13
2018-11-10T15:11:25.336Z,38.30
2018-11-10T15:13:55.731Z,37.13
2018-11-10T15:16:26.098Z,37.63
2018-11-10T15:18:56.720Z,37.73
2018-11-10T15:21:26.968Z,37.60
2018-11-10T15:23:57.358Z,37.17
2018-11-10T15:26:27.968Z,40.43
2018-11-10T15:28:58.327Z,38.87
2018-11-10T15:31:28.658Z,37.43
2018-11-10T15:33:59.917Z,38.10
2018-11-10T15:36:29.913Z,36.50
2018-11-10T15:38:59.988Z,37.77
2018-11-10T15:41:30.326Z,36.80
2018-11-10T15:44:00.582Z,38.50
2018-11-10T15:46:30.843Z,36.37
2018-11-10T15:49:01.292Z,39.43
2018-11-10T15:51:31.743Z,38.20
2018-11-10T15:54:02.188Z,40.90
2018-11-10T15:56:32.303Z,38.07
2018-11-10T15:59:02.738Z,36.63
2018-11-10T16:01:33.036Z,33.23
2018-11-10T16:04:03.558Z,31.97
2018-11-10T16:06:33.952Z,32.67
2018-11-10T16:09:05.149Z,32.13
2018-11-10T16:11:35.933Z,32.10
2018-11-10T16:14:06.422Z,32.03
2018-11-10T16:16:36.677Z,32.47
2018-11-10T16:19:07.683Z,32.97
2018-11-10T16:21:38.163Z,33.77
2018-11-10T16:24:08.698Z,30.47
2018-11-10T16:26:39.083Z,29.17
2018-11-10T16:29:09.643Z,28.37
2018-11-10T16:31:39.788Z,30.53
2018-11-10T16:34:09.768Z,27.63
2018-11-10T16:36:40.248Z,27.70
2018-11-10T16:39:10.853Z,27.60
2018-11-10T16:41:41.391Z,28.87
2018-11-10T16:44:11.590Z,28.30
2018-11-10T16:46:42.168Z,27.70
2018-11-10T16:49:12.528Z,30.20
2018-11-10T16:51:42.822Z,30.20
2018-11-10T16:54:13.138Z,30.50
2018-11-10T16:56:43.228Z,27.27
2018-11-10T16:59:13.646Z,31.60
2018-11-10T17:01:44.748Z,29.40
2018-11-10T17:04:15.088Z,28.53
2018-11-10T17:06:45.102Z,30.40
2018-11-10T17:09:15.595Z,43.63
2018-11-10T17:11:45.580Z,42.73
2018-11-10T17:14:15.763Z,35.93
2018-11-10T17:16:45.997Z,44.77
2018-11-10T17:19:16.353Z,44.77
2018-11-10T17:21:46.896Z,43.53
2018-11-10T17:24:17.083Z,43.47
2018-11-10T17:26:47.390Z,37.93
2018-11-10T17:29:18.037Z,37.07
2018-11-10T17:31:48.768Z,36.30
2018-11-10T17:34:19.213Z,35.67
2018-11-10T17:36:49.622Z,36.77
2018-11-10T17:39:20.434Z,36.53
2018-11-10T17:41:51.090Z,36.30
2018-11-10T17:44:21.762Z,34.80
2018-11-10T17:46:52.178Z,35.07
2018-11-10T17:49:22.323Z,37.73
2018-11-10T17:51:52.565Z,36.90
2018-11-10T17:54:22.928Z,36.30
2018-11-10T17:56:53.472Z,34.27
2018-11-10T17:59:23.748Z,35.50
2018-11-10T18:01:54.256Z,33.27
2018-11-10T18:04:25.053Z,35.10
2018-11-10T18:06:55.458Z,35.33
2018-11-10T18:09:26.078Z,34.43
2018-11-10T18:11:56.863Z,32.63
2018-11-10T18:14:32.610Z,34.77
2018-11-10T18:17:03.513Z,34.93
2018-11-10T18:19:37.254Z,36.07
2018-11-10T18:22:09.209Z,35.40
2018-11-10T18:24:46.836Z,44.97
2018-11-10T18:27:23.773Z,33.93
2018-11-10T18:30:00.610Z,36.47
2018-11-10T18:32:37.284Z,36.10
2018-11-10T18:35:09.145Z,40.83
2018-11-10T18:37:39.467Z,35.73
2018-11-10T18:40:09.764Z,35.70
2018-11-10T18:42:40.120Z,36.27
2018-11-10T18:45:11.408Z,33.00
2018-11-10T18:47:42.097Z,31.53
2018-11-10T18:50:14.769Z,31.73
2018-11-10T18:52:45.048Z,30.87
2018-11-10T18:55:15.968Z,30.23
2018-11-10T18:57:47.187Z,31.90
2018-11-10T19:00:18.333Z,33.47
2018-11-10T19:02:48.681Z,31.03
2018-11-10T19:05:19.162Z,34.77
2018-11-10T19:07:49.358Z,35.90
2018-11-10T19:10:20.078Z,36.73
2018-11-10T19:12:50.077Z,33.27
2018-11-10T19:15:21.508Z,32.27
2018-11-10T19:17:51.773Z,32.43
2018-11-10T19:20:22.063Z,31.13
2018-11-10T19:22:52.513Z,31.97
2018-11-10T19:25:22.993Z,33.40
2018-11-10T19:27:53.333Z,33.43
2018-11-10T19:30:24.079Z,32.30
2018-11-10T19:32:54.488Z,32.67
2018-11-10T19:35:25.191Z,31.53
2018-11-10T19:37:55.318Z,32.43
2018-11-10T19:40:25.728Z,31.80
2018-11-10T19:42:56.179Z,42.63
2018-11-10T19:45:26.428Z,37.07
2018-11-10T19:47:56.964Z,33.57
2018-11-10T19:50:27.723Z,36.67
2018-11-10T19:52:58.210Z,34.43
2018-11-10T19:55:28.713Z,35.90
2018-11-10T19:58:00.468Z,36.40
2018-11-10T20:00:31.242Z,36.20
2018-11-10T20:03:01.670Z,38.17
2018-11-10T20:05:32.378Z,38.13
2018-11-10T20:08:03.123Z,34.27
2018-11-10T20:10:34.359Z,34.33
2018-11-10T20:13:05.218Z,29.50
2018-11-10T20:15:36.520Z,31.40
2018-11-10T20:18:07.884Z,30.90
2018-11-10T20:20:38.994Z,31.13
2018-11-10T20:23:10.205Z,30.57
2018-11-10T20:25:40.934Z,31.67
2018-11-10T20:28:11.849Z,31.97
2018-11-10T20:30:42.578Z,30.17
2018-11-10T20:33:13.405Z,30.77
2018-11-10T20:35:44.998Z,32.17
2018-11-10T20:38:15.865Z,32.27
2018-11-10T20:40:46.648Z,32.50
2018-11-10T20:43:18.084Z,30.60
2018-11-10T20:45:49.195Z,30.43
2018-11-10T20:48:20.387Z,30.83
2018-11-10T20:50:51.858Z,33.13
2018-11-10T20:53:22.915Z,31.00
2018-11-10T20:55:55.342Z,32.33
2018-11-10T20:58:26.677Z,32.07
2018-11-10T21:00:57.812Z,33.50
2018-11-10T21:03:29.298Z,33.23
2018-11-10T21:06:00.911Z,31.27
2018-11-10T21:08:33.151Z,35.37
2018-11-10T21:11:04.613Z,33.97
2018-11-10T21:13:36.063Z,33.93
2018-11-10T21:16:07.562Z,31.80
2018-11-10T21:18:38.933Z,35.13
2018-11-10T21:21:10.274Z,34.03
2018-11-10T21:23:41.211Z,34.60
2018-11-10T21:26:12.539Z,33.13
2018-11-10T21:28:43.892Z,32.40
2018-11-10T21:31:15.011Z,33.00
2018-11-10T21:33:46.514Z,26.70
2018-11-10T21:36:18.193Z,29.27
2018-11-10T21:38:49.795Z,30.37
2018-11-10T21:41:20.168Z,31.67
2018-11-10T21:43:50.845Z,31.57
2018-11-10T21:46:21.579Z,31.87
2018-11-10T21:48:51.928Z,30.23
2018-11-10T21:51:22.268Z,33.93
2018-11-10T21:53:52.628Z,30.93
2018-11-10T21:56:23.033Z,31.60
2018-11-10T21:58:53.073Z,30.77
2018-11-10T22:01:23.473Z,31.30
2018-11-10T22:03:53.689Z,29.27
2018-11-10T22:06:23.995Z,34.20
2018-11-10T22:08:54.336Z,31.17
2018-11-10T22:11:24.780Z,35.23
2018-11-10T22:13:55.133Z,33.37
2018-11-10T22:16:25.314Z,35.83
2018-11-10T22:18:55.533Z,39.23
2018-11-10T22:21:25.868Z,35.90
2018-11-10T22:23:56.178Z,38.53
2018-11-10T22:26:26.593Z,35.63
2018-11-10T22:28:57.318Z,37.30
2018-11-10T22:31:27.873Z,37.30
2018-11-10T22:33:58.068Z,36.70
2018-11-10T22:36:28.629Z,38.43
2018-11-10T22:38:58.968Z,37.20
2018-11-10T22:41:29.178Z,38.20
2018-11-10T22:43:59.618Z,38.97
2018-11-10T22:46:30.143Z,39.33
2018-11-10T22:49:00.452Z,39.47
2018-11-10T22:51:30.848Z,37.43
2018-11-10T22:54:01.258Z,36.53
2018-11-10T22:56:31.785Z,36.47
2018-11-10T22:59:02.174Z,34.77
2018-11-10T23:01:34.208Z,36.77
2018-11-10T23:04:04.468Z,35.93
2018-11-10T23:06:34.833Z,36.77
2018-11-10T23:09:05.266Z,35.73
2018-11-10T23:11:35.488Z,36.27
2018-11-10T23:14:06.228Z,35.90
2018-11-10T23:16:36.463Z,38.57
2018-11-10T23:19:06.773Z,41.33
2018-11-10T23:21:37.013Z,37.37
2018-11-10T23:24:07.053Z,39.07
2018-11-10T23:26:37.369Z,39.03
2018-11-10T23:29:07.263Z,38.83
2018-11-10T23:31:37.723Z,39.47
2018-11-10T23:34:07.818Z,40.27
2018-11-10T23:36:38.198Z,42.73
2018-11-10T23:39:12.269Z,38.57
2018-11-10T23:41:42.608Z,39.53
2018-11-10T23:44:12.803Z,42.10
2018-11-10T23:46:43.028Z,38.93
2018-11-10T23:49:13.163Z,39.10
2018-11-10T23:51:43.394Z,39.53
2018-11-10T23:54:13.684Z,40.23
2018-11-10T23:56:43.740Z,39.77
2018-11-10T23:59:14.193Z,35.83
